CheckWX is a tool to help pilots better visualize weather data.  It is not intended as a substitute for an official pre-flight weather briefing.

03:14:50 UTC

KWHP METAR
Whiteman Airport
Los Angeles, California, USA
Current

20 mins ago

KWHP 180255Z 00000KT 10SM SKC 24/11 A2993
Observed
Sep-18 @ 02:55 UTC
Visibility
10 SM
Flight Rules
VFR
Cloud Levels
  • Clear skies
Temperature
24°C / 75°F
Dewpoint
11°C / 52°F
Humidity
44%
Altimeter
29.93" Hg
Pressure
1013.52 hPa
Previous

1 hour ago

KWHP 180155Z 00000KT 10SM SKC 24/10 A2993
Observed
Sep-18 @ 01:55 UTC
Visibility
10 SM
Flight Rules
VFR
Cloud Levels
  • Clear skies
Temperature
24°C / 75°F
Dewpoint
10°C / 50°F
Humidity
41%
Altimeter
29.93" Hg
Pressure
1013.52 hPa
Previous

2 hours ago

KWHP 180055Z 00000KT 10SM SKC 25/10 A2993
Observed
Sep-18 @ 00:55 UTC
Visibility
10 SM
Flight Rules
VFR
Cloud Levels
  • Clear skies
Temperature
25°C / 77°F
Dewpoint
10°C / 50°F
Humidity
39%
Altimeter
29.93" Hg
Pressure
1013.52 hPa